Time;durP1;ratioP1;P1;durP2;ratioP2;P2;SDS_P1;SDS_P2;PMS_P1;PMS_P2;Temp;Humidity;BMP_temperature;BMP_pressure;BME280_temperature;BME280_humidity;BME280_pressure;Samples;Min_cycle;Max_cycle;Signal;HPM_P1;HPM_P2
2021/08/21 00:00:31;;;;;;;9.32;8.27;;;15.40;99.90;;;;;;5064321;28;20119;-61
2021/08/21 00:02:58;;;;;;;9.32;8.27;;;15.20;99.90;;;;;;5063226;28;20047;-61
2021/08/21 00:05:23;;;;;;;11.60;9.30;;;15.10;99.90;;;;;;5067323;28;20052;-61
2021/08/21 00:07:49;;;;;;;13.10;11.75;;;15.10;99.90;;;;;;5067086;28;20041;-62
2021/08/21 00:10:16;;;;;;;10.43;9.35;;;15.10;99.90;;;;;;5081108;28;20063;-61
2021/08/21 00:12:42;;;;;;;11.70;8.75;;;15.10;99.90;;;;;;5067744;28;20053;-62
2021/08/21 00:15:11;;;;;;;12.95;10.88;;;15.10;99.90;;;;;;5082023;28;20033;-61
2021/08/21 00:17:38;;;;;;;15.27;12.25;;;15.10;99.90;;;;;;5068342;28;20041;-62
2021/08/21 00:20:06;;;;;;;13.80;12.20;;;15.10;99.90;;;;;;5067445;28;20056;-62
2021/08/21 00:22:32;;;;;;;15.30;13.65;;;15.10;99.90;;;;;;5066873;28;20045;-64
2021/08/21 00:24:58;;;;;;;14.50;12.32;;;15.10;99.90;;;;;;5067364;28;20124;-62
2021/08/21 00:27:26;;;;;;;14.13;11.88;;;15.10;99.90;;;;;;5067344;28;20047;-61
2021/08/21 00:29:54;;;;;;;10.35;9.32;;;15.20;99.90;;;;;;5067416;28;20052;-61
2021/08/21 00:32:21;;;;;;;10.82;9.65;;;15.20;99.90;;;;;;5066790;28;20041;-62
2021/08/21 00:34:46;;;;;;;10.55;9.15;;;15.20;99.90;;;;;;5067740;28;20066;-61
2021/08/21 00:37:12;;;;;;;12.93;10.18;;;15.10;99.90;;;;;;5067023;28;20076;-61
2021/08/21 00:39:38;;;;;;;13.20;11.65;;;15.20;99.90;;;;;;5065996;28;20507;-61
2021/08/21 00:42:06;;;;;;;14.68;12.27;;;15.30;99.90;;;;;;5070649;28;20072;-61
2021/08/21 00:44:33;;;;;;;12.10;10.77;;;15.30;99.90;;;;;;5069102;28;20044;-62
2021/08/21 00:47:11;;;;;;;14.45;11.52;;;15.30;99.90;;;;;;5075633;28;20049;-62
2021/08/21 00:49:38;;;;;;;10.38;9.20;;;15.30;99.90;;;;;;5068133;28;20064;-61
2021/08/21 00:52:05;;;;;;;13.18;10.40;;;15.20;99.90;;;;;;5075335;28;20067;-62
2021/08/21 00:54:32;;;;;;;12.38;10.38;;;15.20;99.90;;;;;;5066612;28;20041;-62
2021/08/21 00:57:00;;;;;;;8.98;8.05;;;15.20;99.90;;;;;;5066284;28;20041;-62
2021/08/21 00:59:37;;;;;;;11.10;9.50;;;15.20;99.90;;;;;;5064954;28;20037;-62
2021/08/21 01:02:06;;;;;;;13.02;10.70;;;15.20;99.90;;;;;;5067111;28;20044;-63
2021/08/21 01:04:34;;;;;;;13.13;10.43;;;15.20;99.90;;;;;;5066591;28;20044;-61
2021/08/21 01:07:06;;;;;;;13.23;10.35;;;15.20;99.90;;;;;;5066140;28;20070;-62
2021/08/21 01:09:32;;;;;;;15.95;13.88;;;15.20;99.90;;;;;;5066132;28;20040;-61
2021/08/21 01:11:58;;;;;;;13.57;12.18;;;15.20;99.90;;;;;;5065928;28;20519;-61
2021/08/21 01:14:27;;;;;;;16.55;12.77;;;15.20;99.90;;;;;;5065338;28;20044;-62
2021/08/21 01:16:54;;;;;;;15.32;12.15;;;15.20;99.90;;;;;;5066278;28;20071;-61
2021/08/21 01:19:21;;;;;;;11.88;10.55;;;15.10;99.90;;;;;;5065952;28;20070;-62
2021/08/21 01:21:47;;;;;;;13.45;11.65;;;15.10;99.90;;;;;;5065972;28;20124;-62
2021/08/21 01:24:13;;;;;;;13.98;11.98;;;15.00;99.90;;;;;;5072662;28;20048;-62
2021/08/21 01:26:56;;;;;;;13.13;11.60;;;15.00;99.90;;;;;;5073415;28;20056;-61
2021/08/21 01:29:23;;;;;;;12.80;11.50;;;15.00;99.90;;;;;;5065568;28;20055;-63
2021/08/21 01:31:50;;;;;;;15.13;11.82;;;15.00;99.90;;;;;;5095862;28;20102;-62
2021/08/21 01:34:17;;;;;;;15.75;13.98;;;15.00;99.90;;;;;;5065693;28;20118;-62
2021/08/21 01:36:46;;;;;;;22.95;17.80;;;15.00;99.90;;;;;;5096632;28;20055;-62
2021/08/21 01:39:12;;;;;;;22.73;17.60;;;15.20;99.90;;;;;;5066281;28;20086;-62
2021/08/21 01:41:40;;;;;;;20.05;17.33;;;15.20;99.90;;;;;;5075197;28;20032;-62
2021/08/21 01:44:14;;;;;;;23.70;18.60;;;15.30;99.90;;;;;;5078623;28;20101;-62
2021/08/21 01:46:41;;;;;;;23.35;19.10;;;15.40;99.90;;;;;;5066624;28;20053;-62
2021/08/21 01:49:09;;;;;;;22.98;18.52;;;15.50;99.90;;;;;;5066479;28;20052;-62
2021/08/21 01:51:37;;;;;;;23.05;19.67;;;15.50;99.90;;;;;;5068589;28;20098;-62
2021/08/21 01:54:03;;;;;;;20.60;18.15;;;15.60;99.90;;;;;;5065325;28;20392;-62
2021/08/21 01:56:29;;;;;;;22.75;18.75;;;15.60;99.90;;;;;;5070758;28;20037;-62
2021/08/21 01:58:54;;;;;;;20.48;18.15;;;15.60;99.90;;;;;;5065177;28;20501;-62
2021/08/21 02:01:20;;;;;;;22.88;17.90;;;15.70;99.90;;;;;;5066057;28;20044;-62
2021/08/21 02:03:46;;;;;;;17.00;12.55;;;15.70;99.90;;;;;;5073756;28;20518;-62
2021/08/21 02:06:15;;;;;;;14.50;11.55;;;15.50;99.90;;;;;;5071391;28;20044;-62
2021/08/21 02:08:41;;;;;;;13.00;10.57;;;15.40;99.90;;;;;;5072431;28;20047;-62
2021/08/21 02:11:07;;;;;;;12.65;11.32;;;15.30;99.90;;;;;;5076999;28;20104;-62
2021/08/21 02:13:34;;;;;;;15.43;12.98;;;15.30;99.90;;;;;;5065191;28;20092;-62
2021/08/21 02:16:00;;;;;;;14.60;12.18;;;15.30;99.90;;;;;;5087278;28;20131;-61
2021/08/21 02:18:26;;;;;;;16.65;13.13;;;15.30;99.90;;;;;;5071691;28;20143;-62
2021/08/21 02:20:52;;;;;;;14.95;13.35;;;15.10;99.90;;;;;;5065571;28;20642;-61
2021/08/21 02:23:18;;;;;;;14.40;12.90;;;15.10;99.90;;;;;;5064487;28;20041;-61
2021/08/21 02:25:44;;;;;;;15.90;13.88;;;15.10;99.90;;;;;;5065049;28;20124;-61
2021/08/21 02:28:17;;;;;;;17.20;14.65;;;15.00;99.90;;;;;;5064721;28;20033;-61
2021/08/21 02:30:43;;;;;;;17.80;13.73;;;14.90;99.90;;;;;;5064714;28;20041;-62
2021/08/21 02:33:10;;;;;;;15.77;13.70;;;14.90;99.90;;;;;;5065692;28;20084;-63
2021/08/21 02:35:35;;;;;;;15.07;13.10;;;14.90;99.90;;;;;;5066126;28;20477;-62
2021/08/21 02:38:03;;;;;;;14.10;12.38;;;14.90;99.90;;;;;;5065332;28;20037;-62
2021/08/21 02:40:29;;;;;;;14.00;12.60;;;14.90;99.90;;;;;;5079747;28;20067;-62
2021/08/21 02:42:55;;;;;;;19.88;16.67;;;14.80;99.90;;;;;;5084383;28;20072;-62
2021/08/21 02:45:21;;;;;;;23.33;17.27;;;14.80;99.90;;;;;;5065127;28;20045;-62
2021/08/21 02:47:47;;;;;;;21.52;18.55;;;14.80;99.90;;;;;;5064182;28;20060;-62
2021/08/21 02:50:13;;;;;;;23.83;18.73;;;14.80;99.90;;;;;;5065942;28;20247;-62
2021/08/21 02:52:39;;;;;;;21.77;18.88;;;14.90;99.90;;;;;;5064175;28;20565;-62
2021/08/21 02:55:05;;;;;;;22.48;18.20;;;14.90;99.90;;;;;;5064193;28;20037;-62
2021/08/21 02:57:31;;;;;;;20.98;16.60;;;14.90;99.90;;;;;;5096529;28;20064;-62
2021/08/21 02:59:56;;;;;;;18.42;16.23;;;14.80;99.90;;;;;;5065936;28;20056;-62
2021/08/21 03:02:22;;;;;;;19.95;15.90;;;14.80;99.90;;;;;;5064384;28;20131;-62
2021/08/21 03:04:48;;;;;;;18.50;16.13;;;14.70;99.90;;;;;;5069577;28;20048;-61
2021/08/21 03:07:14;;;;;;;20.00;17.75;;;14.70;99.90;;;;;;5073303;28;20615;-62
2021/08/21 03:09:40;;;;;;;21.00;18.05;;;14.80;99.90;;;;;;5093272;28;20033;-62
2021/08/21 03:12:06;;;;;;;19.70;17.48;;;14.80;99.90;;;;;;5065026;28;20127;-62
2021/08/21 03:14:31;;;;;;;20.65;17.77;;;14.80;99.90;;;;;;5064805;28;20048;-62
2021/08/21 03:16:57;;;;;;;22.35;17.67;;;14.80;99.90;;;;;;5064548;28;20053;-62
2021/08/21 03:19:23;;;;;;;19.75;17.65;;;14.90;99.90;;;;;;5065110;28;20053;-62
2021/08/21 03:21:49;;;;;;;21.50;17.73;;;14.90;99.90;;;;;;5064855;28;20045;-62
2021/08/21 03:24:14;;;;;;;20.75;18.55;;;14.90;99.90;;;;;;5064555;28;20053;-62
2021/08/21 03:26:40;;;;;;;20.38;17.95;;;15.00;99.90;;;;;;5071671;28;20046;-62
2021/08/21 03:29:08;;;;;;;19.63;17.25;;;15.00;99.90;;;;;;5068775;28;20124;-62
2021/08/21 03:31:34;;;;;;;19.65;16.92;;;15.00;99.90;;;;;;5064367;28;20037;-61
2021/08/21 03:34:00;;;;;;;20.02;16.48;;;15.00;99.90;;;;;;5065050;28;20124;-61
2021/08/21 03:36:26;;;;;;;20.55;17.83;;;15.00;99.90;;;;;;5067807;28;20072;-61
2021/08/21 03:38:52;;;;;;;20.92;18.15;;;15.00;99.90;;;;;;5078130;28;20049;-61
2021/08/21 03:41:18;;;;;;;22.60;18.75;;;15.00;99.90;;;;;;5072259;28;20045;-62
2021/08/21 03:43:43;;;;;;;21.73;19.42;;;15.00;99.90;;;;;;5074471;28;20135;-62
2021/08/21 03:46:09;;;;;;;23.17;20.75;;;15.00;99.90;;;;;;5067732;28;20056;-62
2021/08/21 03:48:35;;;;;;;25.80;20.85;;;15.00;99.90;;;;;;5068529;28;20045;-62
2021/08/21 03:51:01;;;;;;;23.70;21.15;;;15.10;99.90;;;;;;5079622;28;20056;-62
2021/08/21 03:53:27;;;;;;;23.38;20.08;;;15.10;99.90;;;;;;5066953;28;20215;-62
2021/08/21 03:55:52;;;;;;;25.02;22.17;;;15.10;99.90;;;;;;5068398;28;20048;-62
2021/08/21 03:58:18;;;;;;;26.38;22.67;;;15.10;99.90;;;;;;5076542;28;20053;-62
2021/08/21 04:00:44;;;;;;;30.52;23.83;;;15.20;99.90;;;;;;5072930;28;20055;-61
2021/08/21 04:03:10;;;;;;;26.25;22.30;;;15.20;99.90;;;;;;5068137;28;20041;-62
2021/08/21 04:05:36;;;;;;;24.67;21.95;;;15.20;99.90;;;;;;5083357;28;20053;-62
2021/08/21 04:08:03;;;;;;;25.85;21.80;;;15.20;99.90;;;;;;5067178;28;20056;-62
2021/08/21 04:10:28;;;;;;;26.98;22.20;;;15.30;99.90;;;;;;5067205;28;20045;-62
2021/08/21 04:12:54;;;;;;;24.13;21.45;;;15.30;99.90;;;;;;5067768;28;20073;-62
2021/08/21 04:15:20;;;;;;;26.05;22.15;;;15.30;99.90;;;;;;5067144;28;20052;-62
2021/08/21 04:17:46;;;;;;;27.40;22.77;;;15.30;99.90;;;;;;5067081;28;20127;-62
2021/08/21 04:20:12;;;;;;;25.52;22.38;;;15.30;99.90;;;;;;5067283;28;20045;-62
2021/08/21 04:22:38;;;;;;;24.42;20.85;;;15.30;99.90;;;;;;5066967;28;20122;-62
2021/08/21 04:25:05;;;;;;;18.20;16.25;;;15.30;99.90;;;;;;5067155;28;20056;-61
2021/08/21 04:27:30;;;;;;;16.42;14.65;;;15.10;99.90;;;;;;5066723;28;20069;-62
2021/08/21 04:29:56;;;;;;;15.93;14.27;;;14.90;99.90;;;;;;5066868;28;20053;-62
2021/08/21 04:32:23;;;;;;;17.92;16.02;;;14.70;99.90;;;;;;5080242;28;20051;-62
2021/08/21 04:34:49;;;;;;;18.35;15.88;;;14.60;99.90;;;;;;5067058;28;20049;-62
2021/08/21 04:37:16;;;;;;;22.48;18.25;;;14.50;99.90;;;;;;5067178;28;20040;-62
2021/08/21 04:39:42;;;;;;;18.75;16.75;;;14.50;99.90;;;;;;5067736;28;20041;-62
2021/08/21 04:42:08;;;;;;;19.30;17.10;;;14.50;99.90;;;;;;5077324;28;20037;-62
2021/08/21 04:44:34;;;;;;;20.83;18.27;;;14.50;99.90;;;;;;5066623;28;20064;-62
2021/08/21 04:47:00;;;;;;;22.05;18.48;;;14.40;99.90;;;;;;5070074;28;20074;-62
2021/08/21 04:49:26;;;;;;;20.08;16.75;;;14.50;99.90;;;;;;5077021;28;20049;-62
2021/08/21 04:51:52;;;;;;;18.50;15.80;;;14.40;99.90;;;;;;5069706;28;20143;-62
2021/08/21 04:54:17;;;;;;;18.92;16.92;;;14.40;99.90;;;;;;5066392;28;20041;-62
2021/08/21 04:56:43;;;;;;;19.50;16.67;;;14.40;99.90;;;;;;5073202;28;20048;-61
2021/08/21 04:59:09;;;;;;;16.65;14.95;;;14.40;99.90;;;;;;5075338;28;20087;-62
2021/08/21 05:01:35;;;;;;;16.85;15.15;;;14.40;99.90;;;;;;5071613;28;20374;-62
2021/08/21 05:04:01;;;;;;;17.38;15.48;;;14.40;99.90;;;;;;5075552;28;20062;-61
2021/08/21 05:06:27;;;;;;;18.35;16.40;;;14.30;99.90;;;;;;5075888;28;20053;-61
2021/08/21 05:08:52;;;;;;;23.10;18.65;;;14.40;99.90;;;;;;5070031;28;20075;-61
2021/08/21 05:11:18;;;;;;;20.88;18.67;;;14.40;99.90;;;;;;5076066;28;20393;-62
2021/08/21 05:13:47;;;;;;;21.02;17.92;;;14.40;99.90;;;;;;5065867;28;20048;-62
2021/08/21 05:16:13;;;;;;;20.63;18.52;;;14.50;99.90;;;;;;5066326;28;20156;-62
2021/08/21 05:18:46;;;;;;;23.15;19.13;;;14.50;99.90;;;;;;5066110;28;20041;-62
2021/08/21 05:21:23;;;;;;;20.67;18.48;;;14.50;99.90;;;;;;5066097;28;20052;-62
2021/08/21 05:23:49;;;;;;;21.40;18.42;;;14.60;99.90;;;;;;5066347;28;20045;-62
2021/08/21 05:26:15;;;;;;;22.70;18.88;;;14.70;99.90;;;;;;5078704;28;20048;-62
2021/08/21 05:28:41;;;;;;;25.08;21.02;;;14.80;99.90;;;;;;5081461;28;20048;-62
2021/08/21 05:31:07;;;;;;;22.25;18.58;;;14.80;99.90;;;;;;5065721;28;20041;-62
2021/08/21 05:33:34;;;;;;;19.17;16.95;;;14.90;99.90;;;;;;5065569;28;20048;-61
2021/08/21 05:36:00;;;;;;;16.42;14.13;;;14.90;99.90;;;;;;5065770;28;20045;-61
2021/08/21 05:38:26;;;;;;;17.17;15.38;;;14.80;99.90;;;;;;5070290;28;20071;-62
2021/08/21 05:40:52;;;;;;;17.00;15.18;;;14.80;99.90;;;;;;5077838;28;20407;-62
2021/08/21 05:43:18;;;;;;;18.45;15.38;;;14.80;99.90;;;;;;5077261;28;20064;-62
2021/08/21 05:45:44;;;;;;;17.00;15.20;;;14.80;99.90;;;;;;5065728;28;20048;-63
2021/08/21 05:48:09;;;;;;;18.88;16.17;;;14.80;99.90;;;;;;5068603;28;20053;-62
2021/08/21 05:50:36;;;;;;;16.05;14.40;;;14.70;99.90;;;;;;5066908;28;20109;-62
2021/08/21 05:53:02;;;;;;;18.90;16.85;;;14.80;99.90;;;;;;5065807;28;20045;-62
2021/08/21 05:55:28;;;;;;;19.23;17.08;;;14.80;99.90;;;;;;5065747;28;20048;-62
2021/08/21 05:57:54;;;;;;;22.35;19.23;;;14.80;99.90;;;;;;5068571;28;20439;-62
2021/08/21 06:00:20;;;;;;;27.10;22.20;;;14.90;99.90;;;;;;5065864;28;20045;-62
2021/08/21 06:02:46;;;;;;;26.40;21.67;;;14.90;99.90;;;;;;5081147;28;20041;-62
2021/08/21 06:05:12;;;;;;;30.00;23.08;;;15.00;99.90;;;;;;5086639;28;20119;-62
2021/08/21 06:07:39;;;;;;;45.55;26.95;;;15.10;99.90;;;;;;5069682;28;20049;-62
2021/08/21 06:10:06;;;;;;;64.32;29.25;;;15.10;99.90;;;;;;5065753;28;20049;-61
2021/08/21 06:12:32;;;;;;;177.10;31.45;;;15.10;99.90;;;;;;5066411;28;20100;-61
2021/08/21 06:14:58;;;;;;;144.48;26.55;;;15.10;99.90;;;;;;5066138;28;20075;-61
2021/08/21 06:17:24;;;;;;;113.50;26.55;;;15.00;99.90;;;;;;5066289;28;20049;-61
2021/08/21 06:19:50;;;;;;;69.00;25.35;;;15.10;99.90;;;;;;5092247;28;20044;-62
2021/08/21 06:22:15;;;;;;;217.65;29.77;;;15.20;99.90;;;;;;5072580;28;20051;-62
2021/08/21 06:24:42;;;;;;;149.07;27.48;;;15.10;99.90;;;;;;5085606;28;20047;-62
2021/08/21 06:27:09;;;;;;;176.50;29.42;;;15.10;99.90;;;;;;5085520;28;20044;-62
2021/08/21 06:29:35;;;;;;;65.95;25.88;;;15.20;99.90;;;;;;5078346;28;20123;-62
2021/08/21 06:32:05;;;;;;;58.92;24.13;;;15.20;99.90;;;;;;5064938;28;20066;-62
2021/08/21 06:34:33;;;;;;;96.82;26.55;;;15.30;99.90;;;;;;5064420;28;20041;-62
2021/08/21 06:37:00;;;;;;;39.15;23.80;;;15.30;99.90;;;;;;5094209;28;20070;-62
2021/08/21 06:39:26;;;;;;;36.72;25.42;;;15.40;99.90;;;;;;5064469;28;20132;-62
2021/08/21 06:41:52;;;;;;;25.85;21.70;;;15.50;99.90;;;;;;5075672;28;20048;-62
2021/08/21 06:44:18;;;;;;;20.48;18.30;;;15.70;99.90;;;;;;5065697;28;20075;-62
2021/08/21 06:46:44;;;;;;;22.88;20.45;;;15.80;99.90;;;;;;5065889;28;20044;-62
2021/08/21 06:49:10;;;;;;;28.65;22.83;;;16.00;99.90;;;;;;5067882;28;20048;-62
2021/08/21 06:51:36;;;;;;;43.60;26.20;;;16.10;99.90;;;;;;5084159;28;20522;-62
2021/08/21 06:54:02;;;;;;;26.08;23.20;;;16.20;99.90;;;;;;5063826;28;20044;-63
2021/08/21 06:56:28;;;;;;;35.50;24.98;;;16.30;99.90;;;;;;5090022;28;20108;-62
2021/08/21 06:58:53;;;;;;;29.02;23.80;;;16.40;99.90;;;;;;5064819;28;20135;-62
2021/08/21 07:01:19;;;;;;;33.95;25.48;;;16.40;99.90;;;;;;5064134;28;20052;-62
2021/08/21 07:03:45;;;;;;;32.10;26.25;;;16.40;99.90;;;;;;5064144;28;20049;-62
2021/08/21 07:06:11;;;;;;;34.97;27.08;;;16.40;99.90;;;;;;5063109;28;20061;-63
2021/08/21 07:08:37;;;;;;;33.60;27.05;;;16.50;99.90;;;;;;5063689;28;20551;-62
2021/08/21 07:11:03;;;;;;;31.02;26.05;;;16.60;99.90;;;;;;5076095;28;20109;-62
2021/08/21 07:13:29;;;;;;;32.33;25.52;;;16.60;99.90;;;;;;5083522;28;20119;-63
2021/08/21 07:15:56;;;;;;;30.55;23.63;;;16.60;99.90;;;;;;5085181;28;20055;-66
2021/08/21 07:18:21;;;;;;;106.10;27.90;;;16.70;99.90;;;;;;5081906;28;20037;-67
2021/08/21 07:20:47;;;;;;;101.25;29.63;;;16.60;99.90;;;;;;5083437;28;20045;-66
2021/08/21 07:23:13;;;;;;;35.72;25.50;;;16.60;99.90;;;;;;5082809;28;20187;-66
2021/08/21 07:25:39;;;;;;;42.90;24.73;;;16.70;99.90;;;;;;5081880;28;20037;-66
2021/08/21 07:28:05;;;;;;;29.00;23.65;;;16.80;99.90;;;;;;5084477;28;20480;-66
2021/08/21 07:30:30;;;;;;;30.10;24.38;;;16.80;99.90;;;;;;5074939;28;20107;-67
2021/08/21 07:32:56;;;;;;;25.45;20.63;;;16.90;99.90;;;;;;5083315;28;20048;-67
2021/08/21 07:35:22;;;;;;;36.95;24.52;;;16.90;99.90;;;;;;5083049;28;20044;-67
2021/08/21 07:37:48;;;;;;;33.35;25.65;;;16.90;99.90;;;;;;5078958;28;20108;-67
2021/08/21 07:40:14;;;;;;;33.08;24.25;;;16.80;99.90;;;;;;5083149;28;20049;-66
2021/08/21 07:42:40;;;;;;;24.58;21.98;;;16.90;99.90;;;;;;5082252;28;20070;-67
2021/08/21 07:45:07;;;;;;;29.50;24.27;;;17.00;99.90;;;;;;5080650;28;20047;-65
2021/08/21 07:47:33;;;;;;;29.58;24.52;;;17.00;99.90;;;;;;5074292;28;20064;-65
2021/08/21 07:49:58;;;;;;;29.35;23.75;;;17.10;99.90;;;;;;5083270;28;20494;-66
2021/08/21 07:52:24;;;;;;;27.67;21.80;;;17.20;99.90;;;;;;5082749;28;20044;-62
2021/08/21 07:54:50;;;;;;;30.45;24.38;;;17.30;99.90;;;;;;5082984;28;20040;-62
2021/08/21 07:57:16;;;;;;;34.83;23.85;;;17.40;99.90;;;;;;5072886;28;20045;-62
2021/08/21 07:59:42;;;;;;;27.30;22.88;;;17.40;99.90;;;;;;5078227;28;20068;-62
2021/08/21 08:02:09;;;;;;;31.25;21.25;;;17.50;99.90;;;;;;5063761;28;20123;-61
2021/08/21 08:04:35;;;;;;;25.88;21.67;;;17.60;99.90;;;;;;5063640;28;20074;-61
2021/08/21 08:07:02;;;;;;;29.27;23.30;;;17.80;99.90;;;;;;5063645;28;20502;-62
2021/08/21 08:09:28;;;;;;;27.70;22.27;;;17.90;99.90;;;;;;5064002;28;20420;-61
2021/08/21 08:11:55;;;;;;;26.02;23.20;;;17.90;99.90;;;;;;5063634;28;20496;-61
2021/08/21 08:14:21;;;;;;;26.48;21.40;;;18.00;99.90;;;;;;5063430;28;20048;-62
2021/08/21 08:16:47;;;;;;;25.15;20.25;;;18.10;99.90;;;;;;5064504;28;20044;-63
2021/08/21 08:19:13;;;;;;;24.95;20.63;;;18.20;99.90;;;;;;5064136;28;20318;-63
2021/08/21 08:21:39;;;;;;;22.52;19.00;;;18.30;99.90;;;;;;5063740;28;20100;-64
2021/08/21 08:24:05;;;;;;;26.80;21.95;;;18.30;99.90;;;;;;5067891;28;20048;-65
2021/08/21 08:26:31;;;;;;;24.33;19.75;;;18.40;99.90;;;;;;5087839;28;20044;-65
2021/08/21 08:28:57;;;;;;;27.20;21.17;;;18.60;99.90;;;;;;5087374;28;20041;-66
2021/08/21 08:31:23;;;;;;;28.92;23.38;;;18.60;99.90;;;;;;5087932;28;20047;-65
2021/08/21 08:33:48;;;;;;;21.40;18.73;;;18.70;99.90;;;;;;5086526;28;20518;-65
2021/08/21 08:36:15;;;;;;;21.92;19.00;;;18.70;99.90;;;;;;5087312;28;20054;-66
2021/08/21 08:38:41;;;;;;;27.15;22.95;;;18.80;99.90;;;;;;5087755;28;20072;-65
2021/08/21 08:41:11;;;;;;;28.70;24.17;;;19.00;99.90;;;;;;5085098;28;20048;-67
2021/08/21 08:43:41;;;;;;;29.35;23.08;;;19.10;99.90;;;;;;5082813;28;20139;-67
2021/08/21 08:46:08;;;;;;;28.52;24.95;;;19.10;99.90;;;;;;5084110;28;20050;-64
2021/08/21 08:48:37;;;;;;;27.35;23.80;;;19.30;99.90;;;;;;5085021;28;20408;-67
2021/08/21 08:51:03;;;;;;;27.35;22.85;;;19.30;99.90;;;;;;5076774;28;20424;-65
2021/08/21 08:53:29;;;;;;;25.38;21.48;;;19.30;99.90;;;;;;5086216;28;20066;-63
2021/08/21 08:55:55;;;;;;;27.08;23.17;;;19.40;99.90;;;;;;5078553;28;20084;-64
2021/08/21 08:58:21;;;;;;;24.70;21.92;;;19.40;99.90;;;;;;5082131;28;20041;-64
2021/08/21 09:00:47;;;;;;;25.23;21.42;;;19.50;99.90;;;;;;5066637;28;20416;-63
2021/08/21 09:03:24;;;;;;;28.27;22.65;;;19.50;99.90;;;;;;5066409;28;20055;-63
2021/08/21 09:05:52;;;;;;;25.17;21.15;;;19.60;99.90;;;;;;5066773;28;20048;-63
2021/08/21 09:08:26;;;;;;;25.77;21.02;;;19.40;99.90;;;;;;5083354;28;20041;-64
2021/08/21 09:10:52;;;;;;;24.50;21.05;;;19.50;99.90;;;;;;5067281;28;20048;-64
2021/08/21 09:13:19;;;;;;;25.17;22.25;;;19.40;99.90;;;;;;5081209;28;20125;-63
2021/08/21 09:15:58;;;;;;;27.20;21.98;;;19.30;99.90;;;;;;5066080;28;20053;-63
2021/08/21 09:18:28;;;;;;;23.55;19.70;;;19.30;99.90;;;;;;5079901;28;20108;-63
2021/08/21 09:21:03;;;;;;;26.85;22.00;;;19.30;99.90;;;;;;5079039;28;20149;-63
2021/08/21 09:23:46;;;;;;;29.05;24.25;;;19.30;99.90;;;;;;5066418;28;20102;-63
2021/08/21 09:26:20;;;;;;;24.92;21.88;;;19.20;99.90;;;;;;5066607;28;20059;-63
2021/08/21 09:28:51;;;;;;;27.25;23.00;;;19.20;99.90;;;;;;5066078;28;20057;-63
2021/08/21 09:31:24;;;;;;;32.40;27.25;;;19.20;99.90;;;;;;5067058;28;20068;-66
2021/08/21 09:33:53;;;;;;;32.17;27.20;;;19.30;99.90;;;;;;5090535;28;20045;-65
2021/08/21 09:36:28;;;;;;;31.58;26.60;;;19.20;99.90;;;;;;5084361;28;20040;-65
2021/08/21 09:38:54;;;;;;;30.50;26.33;;;19.10;99.90;;;;;;5086157;28;20045;-67
2021/08/21 09:41:20;;;;;;;31.58;26.65;;;19.10;99.90;;;;;;5086188;28;20072;-66
2021/08/21 09:43:46;;;;;;;30.30;25.67;;;19.20;99.90;;;;;;5085210;28;20123;-67
2021/08/21 09:46:16;;;;;;;31.90;26.00;;;19.10;99.90;;;;;;5084870;28;20040;-67
2021/08/21 09:49:07;;;;;;;25.67;22.03;;;19.20;99.90;;;;;;5082596;28;20404;-67
2021/08/21 09:51:44;;;;;;;23.63;20.75;;;19.40;99.90;;;;;;5085054;28;20055;-66
2021/08/21 09:54:22;;;;;;;24.08;20.80;;;19.30;99.90;;;;;;5085871;28;20044;-65
2021/08/21 09:56:54;;;;;;;25.60;21.73;;;19.30;99.90;;;;;;5085284;28;20048;-66
2021/08/21 09:59:40;;;;;;;23.67;19.30;;;19.30;99.90;;;;;;5084896;28;20044;-66
2021/08/21 10:02:13;;;;;;;29.77;23.00;;;19.40;99.90;;;;;;5084882;28;20041;-66
2021/08/21 10:04:41;;;;;;;21.85;18.58;;;19.50;99.90;;;;;;5073307;28;20048;-65
2021/08/21 10:07:11;;;;;;;22.00;19.38;;;19.60;99.90;;;;;;5085044;28;20047;-66
2021/08/21 10:09:40;;;;;;;23.45;19.67;;;19.70;99.90;;;;;;5068258;28;20095;-66
2021/08/21 10:12:10;;;;;;;26.60;22.02;;;19.90;99.90;;;;;;5084109;28;20064;-65
2021/08/21 10:14:40;;;;;;;26.27;21.60;;;20.00;99.90;;;;;;5066460;28;20037;-68
2021/08/21 10:17:09;;;;;;;24.85;20.42;;;20.00;99.90;;;;;;5066668;28;20048;-66
2021/08/21 10:19:38;;;;;;;24.83;20.70;;;20.00;99.90;;;;;;5074060;28;20044;-65
2021/08/21 10:22:04;;;;;;;22.08;17.08;;;20.00;99.90;;;;;;5083730;28;20046;-66
2021/08/21 10:24:37;;;;;;;18.10;15.57;;;20.00;99.90;;;;;;5082947;28;20044;-65
2021/08/21 10:27:28;;;;;;;16.45;14.65;;;20.20;99.90;;;;;;5084380;28;20055;-66
2021/08/21 10:30:17;;;;;;;17.75;15.13;;;20.20;99.90;;;;;;5078880;28;20051;-66
2021/08/21 10:32:55;;;;;;;19.23;16.42;;;20.20;99.90;;;;;;5082112;28;20043;-66
2021/08/21 10:35:48;;;;;;;22.98;19.52;;;20.30;99.90;;;;;;5075521;28;20036;-66
2021/08/21 10:38:32;;;;;;;17.10;14.68;;;20.30;99.90;;;;;;5082027;28;20049;-66
2021/08/21 10:41:24;;;;;;;17.85;13.68;;;20.40;99.90;;;;;;5083828;28;20094;-66
2021/08/21 10:43:52;;;;;;;18.13;16.17;;;20.50;99.90;;;;;;5079198;28;20048;-66
2021/08/21 10:46:30;;;;;;;20.60;16.95;;;20.60;99.90;;;;;;5070797;28;20045;-66
2021/08/21 10:48:57;;;;;;;15.93;13.52;;;20.60;99.90;;;;;;5071351;28;20245;-66
2021/08/21 10:51:35;;;;;;;13.70;12.00;;;20.70;99.90;;;;;;5079630;28;20040;-66
2021/08/21 10:54:26;;;;;;;17.58;14.93;;;21.00;99.90;;;;;;5082923;28;20190;-66
2021/08/21 10:56:53;;;;;;;12.82;11.15;;;21.10;99.90;;;;;;5080099;28;20066;-66
2021/08/21 10:59:39;;;;;;;11.57;10.38;;;21.20;99.90;;;;;;5064197;28;20040;-66
2021/08/21 11:02:31;;;;;;;10.10;9.10;;;21.30;99.90;;;;;;5074915;28;20045;-66
2021/08/21 11:04:57;;;;;;;15.45;13.75;;;21.40;99.90;;;;;;5083650;28;20096;-66
2021/08/21 11:07:43;;;;;;;14.32;12.93;;;21.40;99.90;;;;;;5083917;28;20051;-66
2021/08/21 11:10:22;;;;;;;15.38;13.70;;;21.50;99.90;;;;;;5081411;28;20063;-66
2021/08/21 11:12:51;;;;;;;17.50;15.70;;;21.50;99.90;;;;;;5083712;28;20045;-65
2021/08/21 11:15:21;;;;;;;12.93;10.98;;;21.70;99.90;;;;;;5080538;28;20096;-66
2021/08/21 11:17:47;;;;;;;10.60;9.50;;;21.70;99.90;;;;;;5063917;28;20096;-66
2021/08/21 11:20:26;;;;;;;10.05;9.05;;;21.80;99.90;;;;;;5065078;28;20040;-66
2021/08/21 11:23:07;;;;;;;9.93;8.80;;;22.00;99.90;;;;;;5066473;28;20123;-66
2021/08/21 11:25:37;;;;;;;9.25;6.72;;;22.10;99.90;;;;;;5085140;28;20047;-66
2021/08/21 11:28:06;;;;;;;10.32;9.23;;;22.00;99.90;;;;;;5084667;28;20049;-66
2021/08/21 11:30:33;;;;;;;10.77;9.68;;;22.00;99.90;;;;;;5083722;28;20037;-66
2021/08/21 11:33:07;;;;;;;8.57;7.57;;;21.70;99.90;;;;;;5084017;28;20064;-71
2021/08/21 11:35:53;;;;;;;8.45;6.90;;;21.70;99.90;;;;;;5072744;28;20072;-67
2021/08/21 11:38:31;;;;;;;8.65;7.05;;;21.90;99.90;;;;;;5074598;28;20041;-68
2021/08/21 11:40:59;;;;;;;9.38;8.48;;;22.10;99.90;;;;;;5083146;28;20045;-68
2021/08/21 11:43:31;;;;;;;9.07;8.23;;;22.30;99.90;;;;;;5065323;28;20048;-68
2021/08/21 11:45:58;;;;;;;7.07;5.97;;;22.40;99.90;;;;;;5084019;28;20044;-67
2021/08/21 11:48:28;;;;;;;6.43;5.30;;;22.30;99.90;;;;;;5083139;28;20056;-67
2021/08/21 11:50:54;;;;;;;7.97;6.05;;;22.30;99.90;;;;;;5063267;28;20109;-67
2021/08/21 11:53:21;;;;;;;8.07;7.18;;;22.30;99.90;;;;;;5083057;28;20048;-68
2021/08/21 11:55:49;;;;;;;7.60;6.90;;;22.40;99.90;;;;;;5082165;28;20104;-68
2021/08/21 11:58:15;;;;;;;7.20;6.30;;;22.40;99.90;;;;;;5082800;28;20118;-68
2021/08/21 12:00:44;;;;;;;3.47;3.00;;;22.50;99.90;;;;;;5085096;28;20051;-69
2021/08/21 12:03:12;;;;;;;8.40;5.93;;;22.60;99.90;;;;;;5083347;28;20048;-68
2021/08/21 12:05:44;;;;;;;7.72;6.10;;;22.50;99.90;;;;;;5087508;28;20040;-68
2021/08/21 12:08:23;;;;;;;6.68;5.47;;;22.70;99.90;;;;;;5087983;28;20045;-68
2021/08/21 12:10:57;;;;;;;6.93;5.57;;;22.70;99.90;;;;;;5086207;28;20106;-65
2021/08/21 12:13:37;;;;;;;6.07;4.85;;;22.90;99.90;;;;;;5087536;28;20054;-66
2021/08/21 12:16:11;;;;;;;5.43;4.85;;;23.00;99.90;;;;;;5075361;28;20067;-66
2021/08/21 12:18:41;;;;;;;4.80;4.30;;;23.20;99.90;;;;;;5084966;28;20040;-65
2021/08/21 12:21:09;;;;;;;6.10;5.50;;;23.20;99.90;;;;;;5088029;28;20044;-65
2021/08/21 12:23:36;;;;;;;5.10;4.60;;;23.10;99.90;;;;;;5087961;28;20044;-65
2021/08/21 12:26:03;;;;;;;4.95;4.45;;;23.20;99.90;;;;;;5087046;28;20411;-70
2021/08/21 12:28:41;;;;;;;6.63;5.40;;;23.30;99.90;;;;;;5084752;28;20037;-64
2021/08/21 12:31:12;;;;;;;5.80;4.88;;;23.40;99.90;;;;;;5085325;28;20044;-63
2021/08/21 12:33:44;;;;;;;4.90;4.35;;;23.60;99.90;;;;;;5086447;28;20066;-66